Share

Slayton, MN

Slayton (KDVP) Elev 1624 ft | 43.99 °N, 95.78 °W | Change Station
Active Advisory: Fire Weather Watch

Current weather conditions updated 10 minutes ago

Scattered Clouds
Scattered Clouds
55 °F
Feels Like 55 °F
N
7
Wind Variable Wind from SSE
Sunrise 6:29 AM
Sunset 8:14 PM
Moon Waning Gibbous

Today is forecast to be Much Cooler than yesterday.

Pressure 29.90 in
Visibility 10.0 miles
Clouds Scattered Clouds 12000 ft
Dew Point 50 °F
Humidity 84%
Rainfall 0.00 in
Snow Depth Not available.
UV 0 out of 16
Pollen 10.50 out of 12
Air Quality Not available.
Flu Activity Sporadic
METAR KDVP 210712Z AUTO 16006KT 10SM SCT120 13/10 A2990 RMK AO2 LTG DSNT NE SE AND W T01280102

More Conditions Fewer Conditions

Pressure 29.90 in
Visibility 10.0 miles
Clouds Scattered Clouds 12000 ft
Dew Point 50 °F
Humidity 84%
Rainfall 0.00 in
Snow Depth Not available.
UV 0 out of 16
Pollen 10.50 out of 12
Air Quality Not available.
Flu Activity Sporadic
METAR KDVP 210712Z AUTO 16006KT 10SM SCT120 13/10 A2990 RMK AO2 LTG DSNT NE SE AND W T01280102

More Conditions Fewer Conditions

10-Day Weather Forecast

Almanac

Astronomy

Apr. 21, 2014 Rise Set
Actual Time 6:29 AM CDT 8:14 PM CDT
Civil Twilight 5:59 AM CDT 8:45 PM CDT
Nautical Twilight 5:22 AM CDT 9:22 PM CDT
Astronomical Twilight 4:41 AM CDT 10:02 PM CDT
Moon 1:48 AM CDT 11:55 AM CDT
Length of Visible Light 14h 45m
Length of Day
13h 44m
Tomorrow will be 2m 49s longer.
Waning Gibbous, 62% of the Moon is Illuminated
Today
Waning Gibbous
Apr 22
Last Quarter
Apr 29
New
May 6
First Quarter
May 14
Full

Today's Extremes

State Highs State Lows

Community

  • Snowy Robin
    Snowy Robin
  • Sun Pillar and Geese
    Sun Pillar and Geese
  • Showers on the Way
    Showers on the Way
  • Easter Morning Fog
    Easter Morning Fog
  • Easter Dance
    Easter Dance

WunderPhotos

Upload Photos

1,703,572 photos uploaded!

WunderBlogs® & News

Nearby

Snow Depth

Station Depth Elevation
No new snow has been reported.

Coastal Water Temperatures

Place Temperature
No Stations Reporting

Earthquake Activity

City Distance Mag. Time & Date
No recent earthquake activity has been reported nearby.
Minimum magnitude displayed is 2.5.

Nearby Weather Stations

Station Location Temp. Dew Point Humidity Wind Precip. Elev Updated Type
CityViewRanch, Westbrook, MN 58.2 °F 54 °F 87% SSE  at  7.0 mph 0.00 in / hr 1432 ft 2:15 AM CDT Normal
300th st, Westbrook, MN 58.1 °F 57 °F 95% South  at  9.2 mph 0.00 in / hr 1430 ft 2:22 AM CDT Rapid Fire
Rock Lake, Balaton, MN 54.5 °F 51 °F 88% SSE  at  0.0 mph 0.00 in / hr 1568 ft 2:21 AM CDT Rapid Fire
Sorenson Seed, Storden, MN 56.9 °F 54 °F 89% SE  at  9.0 mph 0.00 in / hr 1404 ft 2:20 AM CDT Normal

Show More Stations Show Fewer Stations

What do you think?

We're not finished. Please let us know what you like, what you don't like, and what you are still missing.